createdAt,value
2022-10-16T00:03:17.454Z,13.63
2022-10-16T00:08:20.779Z,13.75
2022-10-16T00:13:22.767Z,13.87
2022-10-16T00:18:25.757Z,13.93
2022-10-16T00:23:28.840Z,14.05
2022-10-16T00:28:31.417Z,14.23
2022-10-16T00:33:33.228Z,14.41
2022-10-16T00:38:36.552Z,14.61
2022-10-16T00:43:41.693Z,14.74
2022-10-16T00:48:47.278Z,14.82
2022-10-16T00:53:50.798Z,14.87
2022-10-16T00:58:53.304Z,14.93
2022-10-16T01:03:55.582Z,14.98
2022-10-16T01:09:14.378Z,14.93
2022-10-16T01:14:22.969Z,14.87
2022-10-16T01:19:39.866Z,14.74
2022-10-16T01:29:54.620Z,14.50
2022-10-16T01:35:01.549Z,14.43
2022-10-16T01:40:10.662Z,14.45
2022-10-16T01:45:17.684Z,14.49
2022-10-16T01:50:21.774Z,14.55
2022-10-16T01:55:28.242Z,14.55
2022-10-16T02:00:32.876Z,14.56
2022-10-16T02:05:41.891Z,14.56
2022-10-16T02:10:44.009Z,14.60
2022-10-16T02:15:47.541Z,14.60
2022-10-16T02:20:53.891Z,14.61
2022-10-16T02:25:59.098Z,14.65
2022-10-16T02:31:06.159Z,14.64
2022-10-16T02:36:08.957Z,14.51
2022-10-16T02:41:11.133Z,14.37
2022-10-16T02:46:14.555Z,14.31
2022-10-16T02:51:16.613Z,14.25
2022-10-16T03:01:23.569Z,14.06
2022-10-16T03:06:25.647Z,13.95
2022-10-16T03:11:27.635Z,13.94
2022-10-16T03:16:31.076Z,13.84
2022-10-16T03:21:33.064Z,13.72
2022-10-16T03:26:35.119Z,13.71
2022-10-16T03:31:38.478Z,13.64
2022-10-16T03:36:40.790Z,13.62
2022-10-16T03:41:43.078Z,13.60
2022-10-16T03:46:46.382Z,13.54
2022-10-16T03:51:48.446Z,13.51
2022-10-16T03:56:50.440Z,13.50
2022-10-16T04:01:53.983Z,13.64
2022-10-16T04:06:55.636Z,13.63
2022-10-16T04:11:57.614Z,13.59
2022-10-16T04:17:00.993Z,13.47
2022-10-16T04:22:02.853Z,13.36
2022-10-16T04:27:05.053Z,13.34
2022-10-16T04:32:09.363Z,13.18
2022-10-16T04:37:11.242Z,13.13
2022-10-16T04:42:12.916Z,12.99
2022-10-16T04:47:16.683Z,12.87
2022-10-16T04:52:18.791Z,12.86
2022-10-16T04:57:21.065Z,12.83
2022-10-16T05:02:24.303Z,12.86
2022-10-16T05:07:26.564Z,12.83
2022-10-16T05:12:28.753Z,12.81
2022-10-16T05:17:31.793Z,12.79
2022-10-16T05:22:33.508Z,12.83
2022-10-16T05:27:35.567Z,12.95
2022-10-16T05:32:38.637Z,13.07
2022-10-16T05:37:40.573Z,13.09
2022-10-16T05:42:42.730Z,13.18
2022-10-16T05:47:46.652Z,13.19
2022-10-16T05:52:48.703Z,13.19
2022-10-16T05:57:50.431Z,13.31
2022-10-16T06:02:54.576Z,13.42
2022-10-16T06:07:56.900Z,13.42
2022-10-16T06:12:58.745Z,13.51
2022-10-16T06:18:02.254Z,13.49
2022-10-16T06:23:04.286Z,13.53
2022-10-16T06:28:06.181Z,13.52
2022-10-16T06:33:09.757Z,13.55
2022-10-16T06:38:11.441Z,13.67
2022-10-16T06:43:13.501Z,13.80
2022-10-16T06:48:16.530Z,13.95
2022-10-16T06:53:18.324Z,14.08
2022-10-16T06:58:21.985Z,14.13
2022-10-16T07:03:27.454Z,14.38
2022-10-16T07:08:33.365Z,14.66
2022-10-16T07:13:37.597Z,15.32
2022-10-16T07:18:42.333Z,16.03
2022-10-16T07:23:45.326Z,16.24
2022-10-16T07:28:49.034Z,16.29
2022-10-16T07:33:52.913Z,16.11
2022-10-16T07:38:58.840Z,16.00
2022-10-16T07:44:06.230Z,16.09
2022-10-16T07:49:13.813Z,16.14
2022-10-16T07:54:17.695Z,16.09
2022-10-16T07:59:24.352Z,16.04
2022-10-16T08:04:31.972Z,16.16
2022-10-16T08:09:34.599Z,16.37
2022-10-16T08:14:36.870Z,16.86
2022-10-16T08:19:40.272Z,17.29
2022-10-16T08:24:42.193Z,17.47
2022-10-16T08:29:44.004Z,17.65
2022-10-16T08:34:47.395Z,17.55
2022-10-16T08:39:49.395Z,17.48
2022-10-16T08:45:08.284Z,17.60
2022-10-16T08:50:14.123Z,17.63
2022-10-16T08:55:32.462Z,17.78
2022-10-16T09:00:34.922Z,18.01
2022-10-16T09:05:53.753Z,17.83
2022-10-16T09:10:59.768Z,17.87
2022-10-16T09:16:16.317Z,18.49
2022-10-16T09:21:23.156Z,18.74
2022-10-16T09:26:25.127Z,19.18
2022-10-16T09:31:27.294Z,19.74
2022-10-16T09:36:41.194Z,19.42
2022-10-16T09:41:44.546Z,19.54
2022-10-16T09:46:46.370Z,19.30
2022-10-16T09:51:49.571Z,19.16
2022-10-16T09:56:51.216Z,23.81
2022-10-16T10:01:55.145Z,23.04
2022-10-16T10:06:59.565Z,25.19
2022-10-16T10:17:15.860Z,26.59
2022-10-16T10:22:44.107Z,22.75
2022-10-16T10:28:01.304Z,21.33
2022-10-16T10:33:20.328Z,21.08
2022-10-16T10:38:32.431Z,22.01
2022-10-16T10:43:48.899Z,24.17
2022-10-16T10:49:08.643Z,25.73
2022-10-16T10:54:21.750Z,25.13
2022-10-16T10:59:49.881Z,22.56
2022-10-16T11:05:16.040Z,22.97
2022-10-16T11:10:23.881Z,25.35
2022-10-16T11:15:30.117Z,23.36
2022-10-16T11:20:35.492Z,23.15
2022-10-16T11:25:40.956Z,22.21
2022-10-16T11:30:46.920Z,21.69
2022-10-16T11:35:54.136Z,21.85
2022-10-16T11:41:02.239Z,21.70
2022-10-16T11:46:10.195Z,21.79
2022-10-16T11:51:17.389Z,22.31
2022-10-16T11:56:22.910Z,21.91
2022-10-16T12:01:33.266Z,22.01
2022-10-16T12:06:38.414Z,21.85
2022-10-16T12:11:41.888Z,21.43
2022-10-16T12:16:53.247Z,21.80
2022-10-16T12:21:58.328Z,21.58
2022-10-16T12:27:02.628Z,21.15
2022-10-16T12:32:06.563Z,21.33
2022-10-16T12:37:12.290Z,21.36
2022-10-16T12:42:33.924Z,21.80
2022-10-16T12:47:49.328Z,21.86
2022-10-16T12:52:51.407Z,21.25
2022-10-16T12:58:32.457Z,21.58
2022-10-16T13:04:05.809Z,22.01
2022-10-16T13:09:19.146Z,22.22
2022-10-16T13:19:58.117Z,21.60
2022-10-16T13:25:14.843Z,21.41
2022-10-16T13:30:21.487Z,21.43
2022-10-16T13:35:25.520Z,21.21
2022-10-16T13:40:27.489Z,21.19
2022-10-16T13:45:31.238Z,20.87
2022-10-16T13:50:33.997Z,20.69
2022-10-16T13:55:39.810Z,21.09
2022-10-16T14:00:55.010Z,21.20
2022-10-16T14:06:01.982Z,21.47
2022-10-16T14:11:03.714Z,21.73
2022-10-16T14:16:16.287Z,21.35
2022-10-16T14:21:20.391Z,21.08
2022-10-16T14:26:25.363Z,21.38
2022-10-16T14:31:31.971Z,21.32
2022-10-16T14:36:35.426Z,21.14
2022-10-16T14:41:45.399Z,21.32
2022-10-16T14:46:49.067Z,21.10
2022-10-16T14:51:51.160Z,20.87
2022-10-16T14:56:55.907Z,20.67
2022-10-16T15:01:59.506Z,20.46
2022-10-16T15:07:01.636Z,20.27
2022-10-16T15:12:04.134Z,20.12
2022-10-16T15:17:10.163Z,19.97
2022-10-16T15:22:12.713Z,19.60
2022-10-16T15:27:14.634Z,19.32
2022-10-16T15:32:18.227Z,19.00
2022-10-16T15:37:20.012Z,18.84
2022-10-16T15:42:22.110Z,18.59
2022-10-16T15:47:26.180Z,18.45
2022-10-16T15:52:28.307Z,18.23
2022-10-16T15:57:30.321Z,18.05
2022-10-16T16:02:33.836Z,17.63
2022-10-16T16:07:35.978Z,17.13
2022-10-16T16:12:38.881Z,16.57
2022-10-16T16:17:42.364Z,16.15
2022-10-16T16:22:44.299Z,15.77
2022-10-16T16:27:46.076Z,15.38
2022-10-16T16:32:49.529Z,14.99
2022-10-16T16:37:51.644Z,14.85
2022-10-16T16:42:53.318Z,14.54
2022-10-16T16:47:56.803Z,14.29
2022-10-16T16:52:58.538Z,14.14
2022-10-16T16:58:00.545Z,13.93
2022-10-16T17:03:04.044Z,13.84
2022-10-16T17:08:07.967Z,13.66
2022-10-16T17:13:09.750Z,13.45
2022-10-16T17:18:13.393Z,13.22
2022-10-16T17:23:16.171Z,13.05
2022-10-16T17:28:18.390Z,12.86
2022-10-16T17:33:21.447Z,12.66
2022-10-16T17:38:23.136Z,12.51
2022-10-16T17:43:24.917Z,12.43
2022-10-16T17:48:27.981Z,12.33
2022-10-16T17:53:30.119Z,12.20
2022-10-16T17:58:32.324Z,12.05
2022-10-16T18:03:35.370Z,11.96
2022-10-16T18:08:37.696Z,11.83
2022-10-16T18:13:39.633Z,11.67
2022-10-16T18:18:44.863Z,11.55
2022-10-16T18:23:51.714Z,11.42
2022-10-16T18:28:55.878Z,11.29
2022-10-16T18:34:00.079Z,11.25
2022-10-16T18:39:04.540Z,11.11
2022-10-16T18:44:08.006Z,10.99
2022-10-16T18:49:12.032Z,10.87
2022-10-16T18:54:14.800Z,10.78
2022-10-16T18:59:17.515Z,10.78
2022-10-16T19:04:21.092Z,10.67
2022-10-16T19:09:24.146Z,10.59
2022-10-16T19:14:26.664Z,10.58
2022-10-16T19:19:30.236Z,10.64
2022-10-16T19:24:32.204Z,10.61
2022-10-16T19:29:34.015Z,10.67
2022-10-16T19:34:37.448Z,10.74
2022-10-16T19:39:39.341Z,10.85
2022-10-16T19:44:41.401Z,10.91
2022-10-16T19:49:45.024Z,10.75
2022-10-16T19:54:46.646Z,10.66
2022-10-16T19:59:51.669Z,10.74
2022-10-16T20:04:55.114Z,10.62
2022-10-16T20:09:56.945Z,10.53
2022-10-16T20:14:58.607Z,10.46
2022-10-16T20:20:02.227Z,10.50
2022-10-16T20:25:08.451Z,10.33
2022-10-16T20:30:12.414Z,10.27
2022-10-16T20:35:15.794Z,10.28
2022-10-16T20:40:17.468Z,10.30
2022-10-16T20:45:19.223Z,10.33
2022-10-16T20:50:22.714Z,10.40
2022-10-16T20:55:25.018Z,10.56
2022-10-16T21:00:27.283Z,10.61
2022-10-16T21:05:30.707Z,10.59
2022-10-16T21:10:32.844Z,10.54
2022-10-16T21:15:34.865Z,10.61
2022-10-16T21:20:42.453Z,10.64
2022-10-16T21:25:49.037Z,10.63
2022-10-16T21:30:51.001Z,10.50
2022-10-16T21:35:55.177Z,10.36
2022-10-16T21:40:57.509Z,10.28
2022-10-16T21:45:59.469Z,10.28
2022-10-16T21:51:02.898Z,10.20
2022-10-16T21:56:05.458Z,10.20
2022-10-16T22:01:08.128Z,10.27
2022-10-16T22:06:13.546Z,10.21
2022-10-16T22:11:22.060Z,10.08
2022-10-16T22:16:26.837Z,10.04
2022-10-16T22:21:30.326Z,10.16
2022-10-16T22:26:32.329Z,10.28
2022-10-16T22:31:34.796Z,10.31
2022-10-16T22:36:37.836Z,10.33
2022-10-16T22:41:39.921Z,10.31
2022-10-16T22:46:42.204Z,10.33
2022-10-16T22:51:45.276Z,10.41
2022-10-16T22:56:47.496Z,10.46
2022-10-16T23:01:49.663Z,10.54
2022-10-16T23:06:53.076Z,10.66
2022-10-16T23:11:55.088Z,10.67
2022-10-16T23:16:56.894Z,10.73
2022-10-16T23:22:00.504Z,10.81
2022-10-16T23:27:02.258Z,10.86
2022-10-16T23:32:04.534Z,10.94
2022-10-16T23:37:08.043Z,11.01
2022-10-16T23:42:10.089Z,11.04
2022-10-16T23:47:11.787Z,11.02
2022-10-16T23:52:15.271Z,11.07
2022-10-16T23:57:17.334Z,11.08
